Impacts TAF Board
For situational awareness. Not to be used for flight planning purposes.
IDs:

KIAH - Houston/Bush Intl, TX, US

Issued at 0316 UTC 23 Oct 2018
Updated at 0317 UTC 23 Oct 2018
Potential Impact None Slight Moderate High
Time0253Z 23/04Z 23/05Z 23/06Z 23/07Z 23/08Z 23/09Z 23/10Z 23/11Z 23/12Z 23/13Z 23/14Z 23/15Z 23/16Z>>
Type OBS PRVL PRVL PRVL PRVL PRVL PRVL PRVL PRVL PRVL PRVL PRVL PRVL PRVL
VIS 10 >6 >6 >6 6 6 6 6 6 5 5 5 5 5
CIG 110 120 60 60 35 35 35 35 35 15 15 15 15 15
Cover OVC BKN OVC OVC BKN BKN BKN BKN BKN OVC OVC OVC OVC OVC
FltCat VFR VFR VFR VFR VFR VFR VFR VFR VFR MVFR MVFR MVFR MVFR MVFR
WX -- -- -- -- -RA -RA -RA -RA -RA -RA BR -RA BR -RA BR -RA BR -RA BR
WDir 10 10 10 10 10 10 10 10 10 20 20 20 20 20
WSpd 4 7 5 5 6 6 6 6 6 9 9 9 9 9
WGst -- -- -- -- -- -- -- -- -- -- -- -- -- --
Raw TAF
KIAH 230316Z 2303/2406 01007KT P6SM FEW060 BKN120
  FM230500 01005KT P6SM FEW035 BKN060 OVC090
  FM230700 01006KT 6SM -RA SCT015 BKN035 BKN120
  FM231200 02009KT 5SM -RA BR FEW008 BKN015 OVC045
  FM232000 02010KT P6SM BKN015 BKN045
  FM240000 03009KT P6SM BKN035


Raw METAR
KIAH 230253Z 01004KT 10SM FEW065 BKN110 OVC140 16/12 A3016 RMK AO2 RAB07E16 SLP214 P0000 60000 T01560122 51010
KIAH 230153Z 01008KT 10SM BKN110 OVC140 16/13 A3016 RMK AO2 SLP211 T01610128
KIAH 230053Z 01007KT 10SM BKN110 OVC140 16/13 A3014 RMK AO2 SLP208 T01610128

METAR Board
Radar Display
Forecast Discussion
For situational awareness. Not to be used for flight planning purposes.